Carnival Vista — 3EMB9 — position and weather

sailwx.info

Track history (hours):
 
Tides and Currents Weather Stations Pressure Air Temp Water Temp Dewpoint Dewpoint Depression Visibility Wind Speed Wind Dir Waves Ship Positions

Carnival Vista

Last reported at 2018-Sep-20 19:03 UTC. Time now 2018-Sep-22 07:42 UTC.
Position N 25°40' W 079°54'.

Length 324 m; draft 8.5 m.

Type: Passenger vessel. MMSI: 356883000.

Date/timePositionNaut miles runAvg speedWind from/ knotsBaromVisibWave heightAir tempDewpointWater temp
2018-Sep-20 19:03N 25°40' W 079°54'114.2
2018-Sep-20 19:00N 25°40' W 079°54'714.4
2018-Sep-20 18:30N 25°44' W 080°01'510.6
2018-Sep-20 18:03N 25°46' W 080°06'112.8
2018-Sep-20 18:00N 25°45' W 080°07'3 6.7
2018-Sep-20 17:30N 25°47' W 080°10'0 0.4
2018-Sep-20 17:03N 25°47' W 080°10'0 0.0
2018-Sep-20 17:00N 25°47' W 080°10'0 0.0
2018-Sep-20 16:30N 25°47' W 080°10'0 0.0
2018-Sep-20 16:03N 25°47' W 080°10'0 0.0
2018-Sep-20 16:00N 25°47' W 080°10'0 0.0
2018-Sep-20 15:30N 25°47' W 080°10'0 0.0
2018-Sep-20 15:03N 25°47' W 080°10'0 0.0
2018-Sep-20 15:00N 25°47' W 080°10'0 0.0
2018-Sep-20 14:30N 25°47' W 080°10'0 0.0
2018-Sep-20 14:00N 25°47' W 080°10'0 0.0
2018-Sep-20 13:30N 25°47' W 080°10'0 0.0
2018-Sep-20 13:03N 25°47' W 080°10'0 0.0
2018-Sep-20 13:00N 25°47' W 080°10'0 0.0
2018-Sep-20 12:30N 25°47' W 080°10'0 0.0
2018-Sep-20 12:03N 25°47' W 080°10'0 0.0
2018-Sep-20 12:00N 25°47' W 080°10'0 0.0
2018-Sep-20 11:30N 25°47' W 080°10'0 0.0
2018-Sep-20 11:03N 25°47' W 080°10'0 0.0
2018-Sep-20 11:00N 25°47' W 080°10'0 0.0
2018-Sep-20 10:30N 25°47' W 080°10'0 0.1
2018-Sep-20 10:03N 25°47' W 080°10'0 0.2
2018-Sep-20 10:00N 25°47' W 080°10'0 0.2
2018-Sep-20 09:30N 25°47' W 080°10'4 8.1
2018-Sep-20 09:03N 25°45' W 080°07'112.6
2018-Sep-20 09:00N 25°46' W 080°06'611.2
2018-Sep-20 08:30N 25°48' W 080°00'715.1
2018-Sep-20 08:03N 25°51' W 079°54'114.6
2018-Sep-20 08:00N 25°52' W 079°53'815.0
2018-Sep-20 07:30N 25°56' W 079°46'715.4
2018-Sep-20 07:03N 25°59' W 079°40'114.5
2018-Sep-20 07:00N 25°60' W 079°39'815.4
2018-Sep-20 06:30N 26°03' W 079°31'716.5
2018-Sep-20 06:03N 26°07' W 079°24'119.0
2018-Sep-20 06:00N 26°07' W 079°23'1019.6
2018-Sep-20 05:29N 26°13' W 079°13'  
2018-Sep-16 23:43N 26°09' W 079°26'419.6
2018-Sep-16 23:30N 26°07' W 079°29'920.0
2018-Sep-16 23:03N 26°01' W 079°38'119.6
2018-Sep-16 23:00N 26°01' W 079°38'1019.3
2018-Sep-16 22:30N 25°55' W 079°47'818.0
2018-Sep-16 22:03N 25°50' W 079°55'117.3
2018-Sep-16 22:00N 25°50' W 079°55'816.2
2018-Sep-16 21:30N 25°47' W 080°04'510.4
2018-Sep-16 21:04N 25°46' W 080°09'0 6.8
2018-Sep-16 20:59N 25°46' W 080°09'2 3.6
2018-Sep-16 20:30N 25°47' W 080°11'1 1.4
2018-Sep-16 20:01N 25°47' W 080°10'0 0.0
2018-Sep-16 19:58N 25°47' W 080°10'0 0.0
2018-Sep-16 19:28N 25°47' W 080°10'0 0.0
2018-Sep-16 19:01N 25°47' W 080°10'0 0.0
2018-Sep-16 18:58N 25°47' W 080°10'0 0.0
2018-Sep-16 18:28N 25°47' W 080°10'0 0.0
2018-Sep-16 18:01N 25°47' W 080°10'0 0.0
2018-Sep-16 17:58N 25°47' W 080°10'0 0.0
2018-Sep-16 17:25N 25°47' W 080°10'0 0.0
2018-Sep-16 17:01N 25°47' W 080°10'0 0.0
2018-Sep-16 16:52N 25°47' W 080°10'0 0.0
2018-Sep-16 16:22N 25°47' W 080°10'0 0.0
2018-Sep-16 16:01N 25°47' W 080°10'0 0.0
2018-Sep-16 15:58N 25°47' W 080°10'0 0.0
2018-Sep-16 15:25N 25°47' W 080°10'0 0.0
2018-Sep-16 14:58N 25°47' W 080°10'0 0.0
2018-Sep-16 14:25N 25°47' W 080°10'0 0.0
2018-Sep-16 13:22N 25°47' W 080°10'0 0.0
2018-Sep-16 12:55N 25°47' W 080°10'0 0.0
2018-Sep-16 12:25N 25°47' W 080°10'0 0.0
2018-Sep-16 12:01N 25°47' W 080°10'0 0.0
2018-Sep-16 11:58N 25°47' W 080°10'0 0.0
2018-Sep-16 11:25N 25°47' W 080°10'0 0.0
2018-Sep-16 11:01N 25°47' W 080°10'0 0.0
2018-Sep-16 10:58N 25°47' W 080°10'0 0.0
2018-Sep-16 10:28N 25°47' W 080°10'0 0.0
2018-Sep-16 09:58N 25°47' W 080°10'0 0.0
2018-Sep-16 09:31N 25°47' W 080°10'2 4.2
2018-Sep-16 09:03N 25°46' W 080°08'0 8.9
2018-Sep-16 09:01N 25°46' W 080°08'611.6
2018-Sep-16 08:30N 25°46' W 080°01'715.0
2018-Sep-16 08:03N 25°41' W 079°57'117.0
2018-Sep-16 08:00N 25°40' W 079°56'815.7
2018-Sep-16 07:30N 25°34' W 079°51'716.3
2018-Sep-16 07:03N 25°28' W 079°46'116.7
2018-Sep-16 07:01N 25°28' W 079°45'1018.7
2018-Sep-16 06:30N 25°19' W 079°41'3020.3
2018-Sep-16 05:01N 24°50' W 079°31'021.0
2018-Sep-16 05:00N 24°50' W 079°31'  
2018-Sep-13 04:54N 18°11' W 064°55'719.3
2018-Sep-13 04:30N 18°09' W 064°47'8519.5
2018-Sep-13 00:08N 17°47' W 063°20'220.4
2018-Sep-13 00:02N 17°46' W 063°18'118.9
2018-Sep-13 00:00N 17°46' W 063°18'1019.5
2018-Sep-12 23:29N 17°41' W 063°09'919.4
2018-Sep-12 23:02N 17°33' W 063°06'119.7
2018-Sep-12 23:00N 17°32' W 063°06'1019.6
2018-Sep-12 22:29N 17°22' W 063°02'819.7
2018-Sep-12 22:03N 17°19' W 062°54'10 1.0
2018-Sep-12 11:24N 17°17' W 062°43'9 7.9
2018-Sep-12 10:18N 17°18' W 062°52'4 9.7
2018-Sep-12 09:55N 17°19' W 062°56'4 9.7
2018-Sep-12 09:30N 17°21' W 062°60'5 9.7
2018-Sep-12 09:00N 17°25' W 063°04'5 9.6
2018-Sep-12 08:27N 17°29' W 063°06'5 9.7
2018-Sep-12 07:59N 17°34' W 063°08'5 8.4
2018-Sep-12 07:22N 17°39' W 063°08'3 9.3
2018-Sep-12 07:01N 17°42' W 063°09'2 9.6
2018-Sep-12 06:50N 17°43' W 063°10'3 9.9
2018-Sep-12 06:29N 17°44' W 063°14'4 9.3
2018-Sep-12 06:01N 17°45' W 063°18'0 9.6
2018-Sep-12 05:58N 17°45' W 063°18'5 9.6
2018-Sep-12 05:29N 17°46' W 063°23'4 9.7
2018-Sep-12 05:03N 17°47' W 063°27'1 9.8
2018-Sep-12 04:59N 17°48' W 063°28'5 9.6
2018-Sep-12 04:30N 17°48' W 063°33'7 9.3
2018-Sep-12 03:46N 17°49' W 063°40'410.0
2018-Sep-12 03:23N 17°52' W 063°43'3 8.3
2018-Sep-12 02:59N 17°55' W 063°44'27 8.8
2018-Sep-11 23:54N 18°00' W 063°16'4 9.7
2018-Sep-11 23:29N 18°00' W 063°12'5 9.5
2018-Sep-11 22:58N 18°00' W 063°06'4 5.5
2018-Sep-11 22:20N 18°01' W 063°03'0 0.5
2018-Sep-11 22:02N 18°01' W 063°03'0 0.0
2018-Sep-11 21:32N 18°01' W 063°03'0 0.0
2018-Sep-11 21:02N 18°01' W 063°03'0 0.0
2018-Sep-11 20:50N 18°01' W 063°03'0 0.0
2018-Sep-11 20:20N 18°01' W 063°03'0 0.0
2018-Sep-11 20:02N 18°01' W 063°03'0 0.0
2018-Sep-11 19:50N 18°01' W 063°03'0 0.0
2018-Sep-11 19:20N 18°01' W 063°03'0 0.0
2018-Sep-11 19:02N 18°01' W 063°03'0 0.0
2018-Sep-11 18:50N 18°01' W 063°03'0 0.0
2018-Sep-11 18:08N 18°01' W 063°03'0 0.0
2018-Sep-11 18:02N 18°01' W 063°03'0 0.0
2018-Sep-11 17:38N 18°01' W 063°03'0 0.0
2018-Sep-11 17:20N 18°01' W 063°03'0 0.0
2018-Sep-11 15:50N 18°01' W 063°03'0 0.0
2018-Sep-11 15:08N 18°01' W 063°03'0 0.0
2018-Sep-11 14:38N 18°01' W 063°03'0 0.0
2018-Sep-11 14:26N 18°01' W 063°03'0 0.0
2018-Sep-11 12:41N 18°01' W 063°03'0 0.3
2018-Sep-11 11:24N 18°00' W 063°03'3 8.0
2018-Sep-11 11:02N 18°00' W 063°06'216.5
2018-Sep-11 10:54N 18°00' W 063°08'816.9
2018-Sep-11 10:26N 18°05' W 063°15'717.4
2018-Sep-11 10:02N 18°09' W 063°21'217.3
2018-Sep-11 09:55N 18°10' W 063°22'4415.0
2018-Sep-11 07:00N 18°36' W 064°00'4821.4 050 / 101012.010.8 29.027.630.0
2018-Sep-11 04:43N 19°08' W 064°38'417.4
2018-Sep-11 04:29N 19°11' W 064°42'8916.1
2018-Sep-10 23:00N 20°00' W 066°00'5418.0 030 / 101012.610.8 29.027.628.0
2018-Sep-10 20:00N 20°30' W 066°48'   090 / 101012.010.8 30.028.730.0
Track history (hours):
 
Tides and Currents Weather Stations Pressure Air Temp Water Temp Dewpoint Dewpoint Depression Visibility Wind Speed Wind Dir Waves Ship Positions

Carnival Vista

Last reported at 2018-Sep-20 19:03 UTC. Time now 2018-Sep-22 07:42 UTC.
Position N 25°40' W 079°54'.

Length 324 m; draft 8.5 m.

Type: Passenger vessel. MMSI: 356883000.

Date/timePositionNaut miles runAvg speedWind from/ knotsBaromVisibWave heightAir tempDewpointWater temp
2018-Sep-20 19:03N 25°40' W 079°54'114.2
2018-Sep-20 19:00N 25°40' W 079°54'714.4
2018-Sep-20 18:30N 25°44' W 080°01'510.6
2018-Sep-20 18:03N 25°46' W 080°06'112.8
2018-Sep-20 18:00N 25°45' W 080°07'3 6.7
2018-Sep-20 17:30N 25°47' W 080°10'0 0.4
2018-Sep-20 17:03N 25°47' W 080°10'0 0.0
2018-Sep-20 17:00N 25°47' W 080°10'0 0.0
2018-Sep-20 16:30N 25°47' W 080°10'0 0.0
2018-Sep-20 16:03N 25°47' W 080°10'0 0.0
2018-Sep-20 16:00N 25°47' W 080°10'0 0.0
2018-Sep-20 15:30N 25°47' W 080°10'0 0.0
2018-Sep-20 15:03N 25°47' W 080°10'0 0.0
2018-Sep-20 15:00N 25°47' W 080°10'0 0.0
2018-Sep-20 14:30N 25°47' W 080°10'0 0.0
2018-Sep-20 14:00N 25°47' W 080°10'0 0.0
2018-Sep-20 13:30N 25°47' W 080°10'0 0.0
2018-Sep-20 13:03N 25°47' W 080°10'0 0.0
2018-Sep-20 13:00N 25°47' W 080°10'0 0.0
2018-Sep-20 12:30N 25°47' W 080°10'0 0.0
2018-Sep-20 12:03N 25°47' W 080°10'0 0.0
2018-Sep-20 12:00N 25°47' W 080°10'0 0.0
2018-Sep-20 11:30N 25°47' W 080°10'0 0.0
2018-Sep-20 11:03N 25°47' W 080°10'0 0.0
2018-Sep-20 11:00N 25°47' W 080°10'0 0.0
2018-Sep-20 10:30N 25°47' W 080°10'0 0.1
2018-Sep-20 10:03N 25°47' W 080°10'0 0.2
2018-Sep-20 10:00N 25°47' W 080°10'0 0.2
2018-Sep-20 09:30N 25°47' W 080°10'4 8.1
2018-Sep-20 09:03N 25°45' W 080°07'112.6
2018-Sep-20 09:00N 25°46' W 080°06'611.2
2018-Sep-20 08:30N 25°48' W 080°00'715.1
2018-Sep-20 08:03N 25°51' W 079°54'114.6
2018-Sep-20 08:00N 25°52' W 079°53'815.0
2018-Sep-20 07:30N 25°56' W 079°46'715.4
2018-Sep-20 07:03N 25°59' W 079°40'114.5
2018-Sep-20 07:00N 25°60' W 079°39'815.4
2018-Sep-20 06:30N 26°03' W 079°31'716.5
2018-Sep-20 06:03N 26°07' W 079°24'119.0
2018-Sep-20 06:00N 26°07' W 079°23'1019.6
2018-Sep-20 05:29N 26°13' W 079°13'  
2018-Sep-16 23:43N 26°09' W 079°26'419.6
2018-Sep-16 23:30N 26°07' W 079°29'920.0
2018-Sep-16 23:03N 26°01' W 079°38'119.6
2018-Sep-16 23:00N 26°01' W 079°38'1019.3
2018-Sep-16 22:30N 25°55' W 079°47'818.0
2018-Sep-16 22:03N 25°50' W 079°55'117.3
2018-Sep-16 22:00N 25°50' W 079°55'816.2
2018-Sep-16 21:30N 25°47' W 080°04'510.4
2018-Sep-16 21:04N 25°46' W 080°09'0 6.8
2018-Sep-16 20:59N 25°46' W 080°09'2 3.6
2018-Sep-16 20:30N 25°47' W 080°11'1 1.4
2018-Sep-16 20:01N 25°47' W 080°10'0 0.0
2018-Sep-16 19:58N 25°47' W 080°10'0 0.0
2018-Sep-16 19:28N 25°47' W 080°10'0 0.0
2018-Sep-16 19:01N 25°47' W 080°10'0 0.0
2018-Sep-16 18:58N 25°47' W 080°10'0 0.0
2018-Sep-16 18:28N 25°47' W 080°10'0 0.0
2018-Sep-16 18:01N 25°47' W 080°10'0 0.0
2018-Sep-16 17:58N 25°47' W 080°10'0 0.0
2018-Sep-16 17:25N 25°47' W 080°10'0 0.0
2018-Sep-16 17:01N 25°47' W 080°10'0 0.0
2018-Sep-16 16:52N 25°47' W 080°10'0 0.0
2018-Sep-16 16:22N 25°47' W 080°10'0 0.0
2018-Sep-16 16:01N 25°47' W 080°10'0 0.0
2018-Sep-16 15:58N 25°47' W 080°10'0 0.0
2018-Sep-16 15:25N 25°47' W 080°10'0 0.0
2018-Sep-16 14:58N 25°47' W 080°10'0 0.0
2018-Sep-16 14:25N 25°47' W 080°10'0 0.0
2018-Sep-16 13:22N 25°47' W 080°10'0 0.0
2018-Sep-16 12:55N 25°47' W 080°10'0 0.0
2018-Sep-16 12:25N 25°47' W 080°10'0 0.0
2018-Sep-16 12:01N 25°47' W 080°10'0 0.0
2018-Sep-16 11:58N 25°47' W 080°10'0 0.0
2018-Sep-16 11:25N 25°47' W 080°10'0 0.0
2018-Sep-16 11:01N 25°47' W 080°10'0 0.0
2018-Sep-16 10:58N 25°47' W 080°10'0 0.0
2018-Sep-16 10:28N 25°47' W 080°10'0 0.0
2018-Sep-16 09:58N 25°47' W 080°10'0 0.0
2018-Sep-16 09:31N 25°47' W 080°10'2 4.2
2018-Sep-16 09:03N 25°46' W 080°08'0 8.9
2018-Sep-16 09:01N 25°46' W 080°08'611.6
2018-Sep-16 08:30N 25°46' W 080°01'715.0
2018-Sep-16 08:03N 25°41' W 079°57'117.0
2018-Sep-16 08:00N 25°40' W 079°56'815.7
2018-Sep-16 07:30N 25°34' W 079°51'716.3
2018-Sep-16 07:03N 25°28' W 079°46'116.7
2018-Sep-16 07:01N 25°28' W 079°45'1018.7
2018-Sep-16 06:30N 25°19' W 079°41'3020.3
2018-Sep-16 05:01N 24°50' W 079°31'021.0
2018-Sep-16 05:00N 24°50' W 079°31'  
2018-Sep-13 04:54N 18°11' W 064°55'719.3
2018-Sep-13 04:30N 18°09' W 064°47'8519.5
2018-Sep-13 00:08N 17°47' W 063°20'220.4
2018-Sep-13 00:02N 17°46' W 063°18'118.9
2018-Sep-13 00:00N 17°46' W 063°18'1019.5
2018-Sep-12 23:29N 17°41' W 063°09'919.4
2018-Sep-12 23:02N 17°33' W 063°06'119.7
2018-Sep-12 23:00N 17°32' W 063°06'1019.6
2018-Sep-12 22:29N 17°22' W 063°02'819.7
2018-Sep-12 22:03N 17°19' W 062°54'10 1.0
2018-Sep-12 11:24N 17°17' W 062°43'9 7.9
2018-Sep-12 10:18N 17°18' W 062°52'4 9.7
2018-Sep-12 09:55N 17°19' W 062°56'4 9.7
2018-Sep-12 09:30N 17°21' W 062°60'5 9.7
2018-Sep-12 09:00N 17°25' W 063°04'5 9.6
2018-Sep-12 08:27N 17°29' W 063°06'5 9.7
2018-Sep-12 07:59N 17°34' W 063°08'5 8.4
2018-Sep-12 07:22N 17°39' W 063°08'3 9.3
2018-Sep-12 07:01N 17°42' W 063°09'2 9.6
2018-Sep-12 06:50N 17°43' W 063°10'3 9.9
2018-Sep-12 06:29N 17°44' W 063°14'4 9.3
2018-Sep-12 06:01N 17°45' W 063°18'0 9.6
2018-Sep-12 05:58N 17°45' W 063°18'5 9.6
2018-Sep-12 05:29N 17°46' W 063°23'4 9.7
2018-Sep-12 05:03N 17°47' W 063°27'1 9.8
2018-Sep-12 04:59N 17°48' W 063°28'5 9.6
2018-Sep-12 04:30N 17°48' W 063°33'7 9.3
2018-Sep-12 03:46N 17°49' W 063°40'410.0
2018-Sep-12 03:23N 17°52' W 063°43'3 8.3
2018-Sep-12 02:59N 17°55' W 063°44'27 8.8
2018-Sep-11 23:54N 18°00' W 063°16'4 9.7
2018-Sep-11 23:29N 18°00' W 063°12'5 9.5
2018-Sep-11 22:58N 18°00' W 063°06'4 5.5
2018-Sep-11 22:20N 18°01' W 063°03'0 0.5
2018-Sep-11 22:02N 18°01' W 063°03'0 0.0
2018-Sep-11 21:32N 18°01' W 063°03'0 0.0
2018-Sep-11 21:02N 18°01' W 063°03'0 0.0
2018-Sep-11 20:50N 18°01' W 063°03'0 0.0
2018-Sep-11 20:20N 18°01' W 063°03'0 0.0
2018-Sep-11 20:02N 18°01' W 063°03'0 0.0
2018-Sep-11 19:50N 18°01' W 063°03'0 0.0
2018-Sep-11 19:20N 18°01' W 063°03'0 0.0
2018-Sep-11 19:02N 18°01' W 063°03'0 0.0
2018-Sep-11 18:50N 18°01' W 063°03'0 0.0
2018-Sep-11 18:08N 18°01' W 063°03'0 0.0
2018-Sep-11 18:02N 18°01' W 063°03'0 0.0
2018-Sep-11 17:38N 18°01' W 063°03'0 0.0
2018-Sep-11 17:20N 18°01' W 063°03'0 0.0
2018-Sep-11 15:50N 18°01' W 063°03'0 0.0
2018-Sep-11 15:08N 18°01' W 063°03'0 0.0
2018-Sep-11 14:38N 18°01' W 063°03'0 0.0
2018-Sep-11 14:26N 18°01' W 063°03'0 0.0
2018-Sep-11 12:41N 18°01' W 063°03'0 0.3
2018-Sep-11 11:24N 18°00' W 063°03'3 8.0
2018-Sep-11 11:02N 18°00' W 063°06'216.5
2018-Sep-11 10:54N 18°00' W 063°08'816.9
2018-Sep-11 10:26N 18°05' W 063°15'717.4
2018-Sep-11 10:02N 18°09' W 063°21'217.3
2018-Sep-11 09:55N 18°10' W 063°22'4415.0
2018-Sep-11 07:00N 18°36' W 064°00'4821.4 050 / 101012.010.8 29.027.630.0
2018-Sep-11 04:43N 19°08' W 064°38'417.4
2018-Sep-11 04:29N 19°11' W 064°42'8916.1
2018-Sep-10 23:00N 20°00' W 066°00'5418.0 030 / 101012.610.8 29.027.628.0
2018-Sep-10 20:00N 20°30' W 066°48'   090 / 101012.010.8 30.028.730.0

Dump ship's entire track history